sensor_id;sensor_type;location;lat;lon;timestamp;pressure;altitude;pressure_sealevel;temperature;humidity
7834;BME280;3962;42.696;23.354;2023-03-14T00:01:31;95411.34;;;4.23;53.89
7834;BME280;3962;42.696;23.354;2023-03-14T00:03:58;95405.44;;;4.07;54.72
7834;BME280;3962;42.696;23.354;2023-03-14T00:06:25;95405.34;;;3.96;54.98
7834;BME280;3962;42.696;23.354;2023-03-14T00:08:52;95403.69;;;3.83;55.36
7834;BME280;3962;42.696;23.354;2023-03-14T00:11:21;95392.69;;;3.76;56.21
7834;BME280;3962;42.696;23.354;2023-03-14T00:13:48;95388.28;;;3.77;56.19
7834;BME280;3962;42.696;23.354;2023-03-14T00:16:16;95393.25;;;3.81;55.92
7834;BME280;3962;42.696;23.354;2023-03-14T00:18:44;95382.50;;;3.84;55.17
7834;BME280;3962;42.696;23.354;2023-03-14T00:21:12;95381.75;;;3.82;55.85
7834;BME280;3962;42.696;23.354;2023-03-14T00:23:40;95374.19;;;3.90;55.87
7834;BME280;3962;42.696;23.354;2023-03-14T00:26:09;95371.47;;;3.92;55.27
7834;BME280;3962;42.696;23.354;2023-03-14T00:28:36;95370.72;;;3.90;55.85
7834;BME280;3962;42.696;23.354;2023-03-14T00:31:04;95370.09;;;3.86;55.90
7834;BME280;3962;42.696;23.354;2023-03-14T00:33:31;95356.19;;;3.84;56.27
7834;BME280;3962;42.696;23.354;2023-03-14T00:36:02;95360.41;;;3.74;56.46
7834;BME280;3962;42.696;23.354;2023-03-14T00:38:31;95356.00;;;3.62;57.64
7834;BME280;3962;42.696;23.354;2023-03-14T00:40:58;95358.63;;;3.62;57.46
7834;BME280;3962;42.696;23.354;2023-03-14T00:43:25;95353.88;;;3.67;57.52
7834;BME280;3962;42.696;23.354;2023-03-14T00:45:52;95346.94;;;3.66;57.84
7834;BME280;3962;42.696;23.354;2023-03-14T00:48:19;95356.81;;;3.75;57.41
7834;BME280;3962;42.696;23.354;2023-03-14T00:50:46;95346.72;;;3.82;57.43
7834;BME280;3962;42.696;23.354;2023-03-14T00:53:15;95348.72;;;3.66;57.76
7834;BME280;3962;42.696;23.354;2023-03-14T00:55:43;95353.13;;;3.78;57.67
7834;BME280;3962;42.696;23.354;2023-03-14T00:58:10;95351.13;;;3.81;57.28
7834;BME280;3962;42.696;23.354;2023-03-14T01:00:38;95339.13;;;3.77;57.20
7834;BME280;3962;42.696;23.354;2023-03-14T01:03:05;95342.28;;;3.82;57.54
7834;BME280;3962;42.696;23.354;2023-03-14T01:05:32;95329.88;;;3.72;57.84
7834;BME280;3962;42.696;23.354;2023-03-14T01:07:59;95341.13;;;3.61;57.83
7834;BME280;3962;42.696;23.354;2023-03-14T01:10:28;95339.56;;;3.59;58.22
7834;BME280;3962;42.696;23.354;2023-03-14T01:12:55;95333.13;;;3.50;58.50
7834;BME280;3962;42.696;23.354;2023-03-14T01:15:22;95325.03;;;3.53;58.33
7834;BME280;3962;42.696;23.354;2023-03-14T01:17:49;95325.47;;;3.47;58.81
7834;BME280;3962;42.696;23.354;2023-03-14T01:20:16;95322.94;;;3.46;58.73
7834;BME280;3962;42.696;23.354;2023-03-14T01:22:44;95315.66;;;3.49;59.30
7834;BME280;3962;42.696;23.354;2023-03-14T01:25:14;95313.13;;;3.36;59.63
7834;BME280;3962;42.696;23.354;2023-03-14T01:27:43;95313.66;;;3.41;59.49
7834;BME280;3962;42.696;23.354;2023-03-14T01:30:12;95317.03;;;3.55;58.35
7834;BME280;3962;42.696;23.354;2023-03-14T01:32:39;95312.72;;;3.66;58.08
7834;BME280;3962;42.696;23.354;2023-03-14T01:35:06;95308.63;;;3.62;58.19
7834;BME280;3962;42.696;23.354;2023-03-14T01:37:33;95305.38;;;3.71;57.84
7834;BME280;3962;42.696;23.354;2023-03-14T01:40:00;95301.56;;;3.75;57.57
7834;BME280;3962;42.696;23.354;2023-03-14T01:42:29;95294.28;;;3.79;57.60
7834;BME280;3962;42.696;23.354;2023-03-14T01:44:58;95302.16;;;3.91;57.58
7834;BME280;3962;42.696;23.354;2023-03-14T01:47:26;95296.59;;;3.96;57.50
7834;BME280;3962;42.696;23.354;2023-03-14T01:49:56;95291.53;;;3.93;57.26
7834;BME280;3962;42.696;23.354;2023-03-14T01:52:27;95294.91;;;3.95;57.17
7834;BME280;3962;42.696;23.354;2023-03-14T01:54:56;95293.44;;;3.91;57.21
7834;BME280;3962;42.696;23.354;2023-03-14T01:57:28;95294.72;;;3.98;56.99
7834;BME280;3962;42.696;23.354;2023-03-14T02:00:01;95282.16;;;3.89;57.28
7834;BME280;3962;42.696;23.354;2023-03-14T02:02:30;95289.03;;;3.66;58.14
7834;BME280;3962;42.696;23.354;2023-03-14T02:04:58;95289.91;;;3.54;58.64
7834;BME280;3962;42.696;23.354;2023-03-14T02:07:30;95287.47;;;3.51;58.99
7834;BME280;3962;42.696;23.354;2023-03-14T02:10:01;95286.66;;;3.51;58.50
7834;BME280;3962;42.696;23.354;2023-03-14T02:12:29;95288.97;;;3.55;58.43
7834;BME280;3962;42.696;23.354;2023-03-14T02:14:57;95282.75;;;3.56;58.21
7834;BME280;3962;42.696;23.354;2023-03-14T02:17:24;95279.06;;;3.59;58.30
7834;BME280;3962;42.696;23.354;2023-03-14T02:20:05;95276.63;;;3.56;59.25
7834;BME280;3962;42.696;23.354;2023-03-14T02:22:37;95280.03;;;3.58;58.57
7834;BME280;3962;42.696;23.354;2023-03-14T02:25:08;95276.31;;;3.60;58.49
7834;BME280;3962;42.696;23.354;2023-03-14T02:27:38;95276.22;;;3.62;58.51
7834;BME280;3962;42.696;23.354;2023-03-14T02:30:08;95276.63;;;3.56;59.27
7834;BME280;3962;42.696;23.354;2023-03-14T02:32:39;95278.22;;;3.46;59.76
7834;BME280;3962;42.696;23.354;2023-03-14T02:35:09;95276.84;;;3.41;59.48
7834;BME280;3962;42.696;23.354;2023-03-14T02:37:41;95275.81;;;3.31;60.01
7834;BME280;3962;42.696;23.354;2023-03-14T02:40:10;95278.00;;;3.24;60.52
7834;BME280;3962;42.696;23.354;2023-03-14T02:42:39;95290.16;;;3.13;60.86
7834;BME280;3962;42.696;23.354;2023-03-14T02:48:07;95290.56;;;3.07;60.72
7834;BME280;3962;42.696;23.354;2023-03-14T02:50:35;95289.97;;;3.03;61.36
7834;BME280;3962;42.696;23.354;2023-03-14T02:53:02;95293.19;;;3.07;61.77
7834;BME280;3962;42.696;23.354;2023-03-14T02:55:29;95285.63;;;3.02;62.16
7834;BME280;3962;42.696;23.354;2023-03-14T02:57:57;95293.72;;;2.99;62.44
7834;BME280;3962;42.696;23.354;2023-03-14T03:00:25;95296.56;;;2.96;61.93
7834;BME280;3962;42.696;23.354;2023-03-14T03:02:51;95292.03;;;2.86;63.01
7834;BME280;3962;42.696;23.354;2023-03-14T03:05:18;95291.16;;;2.85;63.06
7834;BME280;3962;42.696;23.354;2023-03-14T03:07:45;95293.16;;;2.82;63.27
7834;BME280;3962;42.696;23.354;2023-03-14T03:10:12;95295.66;;;2.71;64.23
7834;BME280;3962;42.696;23.354;2023-03-14T03:12:39;95298.16;;;2.60;64.00
7834;BME280;3962;42.696;23.354;2023-03-14T03:15:08;95297.69;;;2.53;65.04
7834;BME280;3962;42.696;23.354;2023-03-14T03:17:35;95286.44;;;2.51;65.51
7834;BME280;3962;42.696;23.354;2023-03-14T03:20:02;95284.81;;;2.36;66.95
7834;BME280;3962;42.696;23.354;2023-03-14T03:22:30;95293.59;;;2.09;67.84
7834;BME280;3962;42.696;23.354;2023-03-14T03:24:56;95285.63;;;2.10;67.63
7834;BME280;3962;42.696;23.354;2023-03-14T03:27:23;95289.38;;;2.06;67.91
7834;BME280;3962;42.696;23.354;2023-03-14T03:29:50;95291.13;;;2.20;68.01
7834;BME280;3962;42.696;23.354;2023-03-14T03:32:18;95287.69;;;2.19;67.83
7834;BME280;3962;42.696;23.354;2023-03-14T03:34:45;95287.59;;;2.21;68.19
7834;BME280;3962;42.696;23.354;2023-03-14T03:37:12;95292.19;;;2.17;68.20
7834;BME280;3962;42.696;23.354;2023-03-14T03:39:39;95285.06;;;2.19;69.05
7834;BME280;3962;42.696;23.354;2023-03-14T03:42:06;95282.97;;;2.24;69.19
7834;BME280;3962;42.696;23.354;2023-03-14T03:44:32;95290.75;;;2.26;68.67
7834;BME280;3962;42.696;23.354;2023-03-14T03:46:59;95286.88;;;2.31;69.48
7834;BME280;3962;42.696;23.354;2023-03-14T03:49:29;95293.72;;;2.34;69.33
7834;BME280;3962;42.696;23.354;2023-03-14T03:51:56;95290.75;;;2.26;68.97
7834;BME280;3962;42.696;23.354;2023-03-14T03:54:23;95302.19;;;2.25;69.61
7834;BME280;3962;42.696;23.354;2023-03-14T03:56:50;95303.47;;;2.32;69.05
7834;BME280;3962;42.696;23.354;2023-03-14T03:59:17;95308.00;;;2.30;69.47
7834;BME280;3962;42.696;23.354;2023-03-14T04:01:45;95302.09;;;2.26;68.59
7834;BME280;3962;42.696;23.354;2023-03-14T04:04:12;95298.25;;;2.18;69.56
7834;BME280;3962;42.696;23.354;2023-03-14T04:06:41;95300.72;;;2.21;69.53
7834;BME280;3962;42.696;23.354;2023-03-14T04:09:08;95299.47;;;2.26;68.41
7834;BME280;3962;42.696;23.354;2023-03-14T04:11:35;95298.25;;;2.18;69.34
7834;BME280;3962;42.696;23.354;2023-03-14T04:14:02;95300.22;;;2.28;69.44
7834;BME280;3962;42.696;23.354;2023-03-14T04:16:29;95298.34;;;2.16;69.06
7834;BME280;3962;42.696;23.354;2023-03-14T04:18:57;95285.13;;;2.18;69.06
7834;BME280;3962;42.696;23.354;2023-03-14T04:21:23;95287.03;;;2.16;69.01
7834;BME280;3962;42.696;23.354;2023-03-14T04:23:52;95275.78;;;2.14;68.33
7834;BME280;3962;42.696;23.354;2023-03-14T04:26:19;95274.84;;;2.15;68.98
7834;BME280;3962;42.696;23.354;2023-03-14T04:28:46;95272.75;;;2.20;68.58
7834;BME280;3962;42.696;23.354;2023-03-14T04:31:14;95271.72;;;2.22;68.68
7834;BME280;3962;42.696;23.354;2023-03-14T04:33:42;95276.03;;;2.23;68.68
7834;BME280;3962;42.696;23.354;2023-03-14T04:36:09;95272.50;;;2.24;68.66
7834;BME280;3962;42.696;23.354;2023-03-14T04:38:36;95265.00;;;2.18;68.81
7834;BME280;3962;42.696;23.354;2023-03-14T04:41:05;95265.19;;;2.15;69.72
7834;BME280;3962;42.696;23.354;2023-03-14T04:43:32;95271.06;;;2.19;69.46
7834;BME280;3962;42.696;23.354;2023-03-14T04:45:59;95263.53;;;2.27;68.45
7834;BME280;3962;42.696;23.354;2023-03-14T04:48:26;95254.72;;;2.28;68.25
7834;BME280;3962;42.696;23.354;2023-03-14T04:50:54;95257.78;;;2.22;68.68
7834;BME280;3962;42.696;23.354;2023-03-14T04:53:21;95246.31;;;2.23;68.87
7834;BME280;3962;42.696;23.354;2023-03-14T04:55:48;95241.34;;;2.32;68.46
7834;BME280;3962;42.696;23.354;2023-03-14T04:58:17;95249.69;;;2.25;69.38
7834;BME280;3962;42.696;23.354;2023-03-14T05:00:44;95245.03;;;2.16;69.87
7834;BME280;3962;42.696;23.354;2023-03-14T05:03:11;95244.22;;;2.28;69.06
7834;BME280;3962;42.696;23.354;2023-03-14T05:05:38;95245.63;;;2.33;68.89
7834;BME280;3962;42.696;23.354;2023-03-14T05:08:05;95247.41;;;2.33;69.87
7834;BME280;3962;42.696;23.354;2023-03-14T05:10:32;95241.69;;;2.40;69.94
7834;BME280;3962;42.696;23.354;2023-03-14T05:12:58;95243.22;;;2.43;68.55
7834;BME280;3962;42.696;23.354;2023-03-14T05:15:26;95243.16;;;2.44;69.19
7834;BME280;3962;42.696;23.354;2023-03-14T05:17:53;95248.09;;;2.49;69.48
7834;BME280;3962;42.696;23.354;2023-03-14T05:20:20;95240.84;;;2.52;69.67
7834;BME280;3962;42.696;23.354;2023-03-14T05:22:47;95242.53;;;2.53;68.63
7834;BME280;3962;42.696;23.354;2023-03-14T05:25:14;95244.34;;;2.53;68.27
7834;BME280;3962;42.696;23.354;2023-03-14T05:27:41;95237.94;;;2.57;67.96
7834;BME280;3962;42.696;23.354;2023-03-14T05:30:09;95234.75;;;2.52;68.39
7834;BME280;3962;42.696;23.354;2023-03-14T05:32:37;95237.28;;;2.53;68.91
7834;BME280;3962;42.696;23.354;2023-03-14T05:35:05;95236.16;;;2.57;69.10
7834;BME280;3962;42.696;23.354;2023-03-14T05:37:32;95245.63;;;2.60;69.09
7834;BME280;3962;42.696;23.354;2023-03-14T05:39:59;95242.75;;;2.50;68.75
7834;BME280;3962;42.696;23.354;2023-03-14T05:42:26;95240.00;;;2.52;69.23
7834;BME280;3962;42.696;23.354;2023-03-14T05:44:53;95242.22;;;2.58;68.22
7834;BME280;3962;42.696;23.354;2023-03-14T05:47:20;95240.78;;;2.66;68.74
7834;BME280;3962;42.696;23.354;2023-03-14T05:49:48;95238.91;;;2.68;68.32
7834;BME280;3962;42.696;23.354;2023-03-14T05:52:18;95238.25;;;2.65;67.58
7834;BME280;3962;42.696;23.354;2023-03-14T05:54:45;95248.78;;;2.77;67.73
7834;BME280;3962;42.696;23.354;2023-03-14T05:57:12;95244.84;;;2.97;67.32
7834;BME280;3962;42.696;23.354;2023-03-14T05:59:40;95246.00;;;2.93;66.73
7834;BME280;3962;42.696;23.354;2023-03-14T06:02:07;95242.03;;;3.00;67.41
7834;BME280;3962;42.696;23.354;2023-03-14T06:04:34;95242.75;;;3.02;66.89
7834;BME280;3962;42.696;23.354;2023-03-14T06:07:02;95240.44;;;3.10;66.35
7834;BME280;3962;42.696;23.354;2023-03-14T06:09:29;95243.59;;;3.15;65.82
7834;BME280;3962;42.696;23.354;2023-03-14T06:11:56;95241.31;;;3.23;66.21
7834;BME280;3962;42.696;23.354;2023-03-14T06:14:23;95233.84;;;3.17;66.19
7834;BME280;3962;42.696;23.354;2023-03-14T06:16:50;95229.72;;;3.13;65.63
7834;BME280;3962;42.696;23.354;2023-03-14T06:19:18;95232.03;;;3.17;65.81
7834;BME280;3962;42.696;23.354;2023-03-14T06:21:44;95232.78;;;3.19;66.38
7834;BME280;3962;42.696;23.354;2023-03-14T06:24:13;95247.94;;;3.28;66.22
7834;BME280;3962;42.696;23.354;2023-03-14T06:26:40;95245.72;;;3.35;66.78
7834;BME280;3962;42.696;23.354;2023-03-14T06:29:06;95241.94;;;3.39;65.98
7834;BME280;3962;42.696;23.354;2023-03-14T06:31:34;95245.06;;;3.43;66.29
7834;BME280;3962;42.696;23.354;2023-03-14T06:34:01;95237.19;;;3.43;66.13
7834;BME280;3962;42.696;23.354;2023-03-14T06:36:28;95243.47;;;3.53;65.67
7834;BME280;3962;42.696;23.354;2023-03-14T06:38:55;95248.53;;;3.69;64.98
7834;BME280;3962;42.696;23.354;2023-03-14T06:41:25;95232.81;;;3.80;64.38
7834;BME280;3962;42.696;23.354;2023-03-14T06:43:52;95234.59;;;3.92;64.67
7834;BME280;3962;42.696;23.354;2023-03-14T06:46:19;95235.09;;;3.97;64.68
7834;BME280;3962;42.696;23.354;2023-03-14T06:48:46;95239.56;;;4.20;63.64
7834;BME280;3962;42.696;23.354;2023-03-14T06:51:13;95224.03;;;4.28;62.85
7834;BME280;3962;42.696;23.354;2023-03-14T06:53:41;95220.88;;;4.35;62.57
7834;BME280;3962;42.696;23.354;2023-03-14T06:56:09;95221.34;;;4.40;62.36
7834;BME280;3962;42.696;23.354;2023-03-14T06:58:37;95222.09;;;4.42;62.26
7834;BME280;3962;42.696;23.354;2023-03-14T07:01:04;95219.13;;;4.47;62.22
7834;BME280;3962;42.696;23.354;2023-03-14T07:03:32;95212.13;;;4.58;61.79
7834;BME280;3962;42.696;23.354;2023-03-14T07:05:59;95202.94;;;4.75;61.20
7834;BME280;3962;42.696;23.354;2023-03-14T07:08:26;95205.72;;;4.84;60.75
7834;BME280;3962;42.696;23.354;2023-03-14T07:10:56;95205.63;;;4.86;60.90
7834;BME280;3962;42.696;23.354;2023-03-14T07:13:23;95198.34;;;5.00;60.25
7834;BME280;3962;42.696;23.354;2023-03-14T07:15:51;95200.75;;;5.03;60.77
7834;BME280;3962;42.696;23.354;2023-03-14T07:18:18;95195.25;;;5.06;59.85
7834;BME280;3962;42.696;23.354;2023-03-14T07:20:45;95207.22;;;5.10;57.69
7834;BME280;3962;42.696;23.354;2023-03-14T07:23:12;95196.94;;;5.07;56.95
7834;BME280;3962;42.696;23.354;2023-03-14T07:25:39;95198.25;;;5.13;56.51
7834;BME280;3962;42.696;23.354;2023-03-14T07:28:06;95199.81;;;5.26;56.08
7834;BME280;3962;42.696;23.354;2023-03-14T07:30:33;95188.69;;;5.34;56.30
7834;BME280;3962;42.696;23.354;2023-03-14T07:33:01;95190.00;;;5.50;56.50
7834;BME280;3962;42.696;23.354;2023-03-14T07:35:28;95184.03;;;5.70;55.51
7834;BME280;3962;42.696;23.354;2023-03-14T07:37:55;95189.41;;;5.69;55.90
7834;BME280;3962;42.696;23.354;2023-03-14T07:40:22;95187.16;;;5.75;54.47
7834;BME280;3962;42.696;23.354;2023-03-14T07:42:49;95184.88;;;5.71;55.58
7834;BME280;3962;42.696;23.354;2023-03-14T07:45:16;95182.59;;;5.66;54.26
7834;BME280;3962;42.696;23.354;2023-03-14T07:47:42;95174.56;;;5.79;54.69
7834;BME280;3962;42.696;23.354;2023-03-14T07:50:11;95166.75;;;5.88;54.19
7834;BME280;3962;42.696;23.354;2023-03-14T07:52:38;95165.06;;;6.09;54.25
7834;BME280;3962;42.696;23.354;2023-03-14T07:55:05;95173.19;;;6.17;52.96
7834;BME280;3962;42.696;23.354;2023-03-14T07:57:32;95169.69;;;6.17;53.00
7834;BME280;3962;42.696;23.354;2023-03-14T07:59:59;95164.19;;;6.09;52.77
7834;BME280;3962;42.696;23.354;2023-03-14T08:02:26;95169.22;;;6.23;52.65
7834;BME280;3962;42.696;23.354;2023-03-14T08:04:53;95163.69;;;6.26;52.61
7834;BME280;3962;42.696;23.354;2023-03-14T08:07:21;95172.44;;;6.26;52.53
7834;BME280;3962;42.696;23.354;2023-03-14T08:09:48;95165.44;;;6.36;52.54
7834;BME280;3962;42.696;23.354;2023-03-14T08:12:15;95163.31;;;6.93;51.91
7834;BME280;3962;42.696;23.354;2023-03-14T08:14:42;95161.91;;;8.58;49.58
7834;BME280;3962;42.696;23.354;2023-03-14T08:17:09;95164.09;;;10.48;44.63
7834;BME280;3962;42.696;23.354;2023-03-14T08:19:36;95160.22;;;11.12;42.54
7834;BME280;3962;42.696;23.354;2023-03-14T08:22:03;95157.06;;;12.36;40.42
7834;BME280;3962;42.696;23.354;2023-03-14T08:24:32;95166.94;;;13.09;39.09
7834;BME280;3962;42.696;23.354;2023-03-14T08:26:59;95160.81;;;13.40;38.00
7834;BME280;3962;42.696;23.354;2023-03-14T08:29:26;95160.47;;;13.27;37.85
7834;BME280;3962;42.696;23.354;2023-03-14T08:31:53;95150.78;;;13.42;37.30
7834;BME280;3962;42.696;23.354;2023-03-14T08:34:20;95150.13;;;13.48;37.48
7834;BME280;3962;42.696;23.354;2023-03-14T08:36:47;95143.41;;;13.52;37.36
7834;BME280;3962;42.696;23.354;2023-03-14T08:39:13;95146.94;;;13.37;36.98
7834;BME280;3962;42.696;23.354;2023-03-14T08:41:42;95143.41;;;13.36;36.92
7834;BME280;3962;42.696;23.354;2023-03-14T08:44:10;95130.75;;;13.30;36.81
7834;BME280;3962;42.696;23.354;2023-03-14T08:46:37;95140.59;;;13.54;35.07
7834;BME280;3962;42.696;23.354;2023-03-14T08:49:04;95128.69;;;13.72;35.94
7834;BME280;3962;42.696;23.354;2023-03-14T08:51:31;95125.41;;;14.17;34.54
7834;BME280;3962;42.696;23.354;2023-03-14T08:53:58;95118.56;;;14.22;34.59
7834;BME280;3962;42.696;23.354;2023-03-14T08:56:24;95115.88;;;14.22;35.61
7834;BME280;3962;42.696;23.354;2023-03-14T08:58:53;95111.31;;;14.39;35.01
7834;BME280;3962;42.696;23.354;2023-03-14T09:01:19;95104.50;;;14.12;35.33
7834;BME280;3962;42.696;23.354;2023-03-14T09:03:49;95095.06;;;13.86;34.95
7834;BME280;3962;42.696;23.354;2023-03-14T09:06:16;95097.31;;;13.58;35.62
7834;BME280;3962;42.696;23.354;2023-03-14T09:08:44;95087.75;;;13.72;35.55
7834;BME280;3962;42.696;23.354;2023-03-14T09:11:11;95089.59;;;13.71;36.26
7834;BME280;3962;42.696;23.354;2023-03-14T09:13:39;95083.84;;;13.90;36.64
7834;BME280;3962;42.696;23.354;2023-03-14T09:16:08;95075.25;;;14.57;35.88
7834;BME280;3962;42.696;23.354;2023-03-14T09:18:35;95073.28;;;14.05;36.32
7834;BME280;3962;42.696;23.354;2023-03-14T09:21:02;95073.78;;;14.00;36.23
7834;BME280;3962;42.696;23.354;2023-03-14T09:23:29;95060.47;;;13.84;36.48
7834;BME280;3962;42.696;23.354;2023-03-14T09:25:57;95054.16;;;13.77;36.65
7834;BME280;3962;42.696;23.354;2023-03-14T09:28:24;95053.53;;;13.51;35.42
7834;BME280;3962;42.696;23.354;2023-03-14T09:30:51;95049.06;;;13.36;35.12
7834;BME280;3962;42.696;23.354;2023-03-14T09:33:19;95051.03;;;13.58;36.07
7834;BME280;3962;42.696;23.354;2023-03-14T09:35:46;95034.72;;;13.83;35.19
7834;BME280;3962;42.696;23.354;2023-03-14T09:38:13;95035.00;;;14.04;35.33
7834;BME280;3962;42.696;23.354;2023-03-14T09:40:40;95030.00;;;14.01;35.10
7834;BME280;3962;42.696;23.354;2023-03-14T09:43:09;95022.41;;;13.74;35.43
7834;BME280;3962;42.696;23.354;2023-03-14T09:45:40;95015.31;;;13.89;34.76
7834;BME280;3962;42.696;23.354;2023-03-14T09:48:12;95013.56;;;14.12;34.95
7834;BME280;3962;42.696;23.354;2023-03-14T09:50:44;95016.81;;;14.61;34.39
7834;BME280;3962;42.696;23.354;2023-03-14T09:53:13;95005.91;;;14.62;35.29
7834;BME280;3962;42.696;23.354;2023-03-14T09:55:42;95002.25;;;14.33;34.37
7834;BME280;3962;42.696;23.354;2023-03-14T09:58:12;95002.00;;;14.12;35.02
7834;BME280;3962;42.696;23.354;2023-03-14T10:00:39;94996.94;;;13.94;35.37
7834;BME280;3962;42.696;23.354;2023-03-14T10:03:24;94986.03;;;13.57;37.05
7834;BME280;3962;42.696;23.354;2023-03-14T10:05:53;94981.25;;;13.37;37.38
7834;BME280;3962;42.696;23.354;2023-03-14T10:08:21;94973.34;;;13.51;36.82
7834;BME280;3962;42.696;23.354;2023-03-14T10:10:48;94978.34;;;13.62;38.11
7834;BME280;3962;42.696;23.354;2023-03-14T10:13:17;94960.50;;;13.47;37.25
7834;BME280;3962;42.696;23.354;2023-03-14T10:15:48;94963.69;;;13.42;38.44
7834;BME280;3962;42.696;23.354;2023-03-14T10:18:15;94953.25;;;13.71;37.33
7834;BME280;3962;42.696;23.354;2023-03-14T10:21:20;94952.00;;;13.90;37.06
7834;BME280;3962;42.696;23.354;2023-03-14T10:23:47;94938.88;;;13.72;38.07
7834;BME280;3962;42.696;23.354;2023-03-14T10:26:16;94935.50;;;13.78;38.15
7834;BME280;3962;42.696;23.354;2023-03-14T10:28:45;94924.50;;;13.96;37.53
7834;BME280;3962;42.696;23.354;2023-03-14T10:31:12;94923.75;;;14.10;37.33
7834;BME280;3962;42.696;23.354;2023-03-14T10:33:40;94923.94;;;14.39;37.71
7834;BME280;3962;42.696;23.354;2023-03-14T10:36:17;94914.88;;;14.17;37.59
7834;BME280;3962;42.696;23.354;2023-03-14T10:38:46;94904.50;;;13.92;38.58
7834;BME280;3962;42.696;23.354;2023-03-14T10:41:16;94893.00;;;13.83;38.42
7834;BME280;3962;42.696;23.354;2023-03-14T10:43:43;94891.06;;;14.00;37.95
7834;BME280;3962;42.696;23.354;2023-03-14T10:46:14;94888.28;;;13.93;38.37
7834;BME280;3962;42.696;23.354;2023-03-14T10:48:42;94875.94;;;14.37;37.59
7834;BME280;3962;42.696;23.354;2023-03-14T10:51:19;94865.41;;;14.36;37.11
7834;BME280;3962;42.696;23.354;2023-03-14T10:53:48;94854.84;;;14.12;38.16
7834;BME280;3962;42.696;23.354;2023-03-14T10:56:18;94850.00;;;14.38;37.87
7834;BME280;3962;42.696;23.354;2023-03-14T10:58:46;94852.31;;;14.41;37.75
7834;BME280;3962;42.696;23.354;2023-03-14T11:01:26;94834.50;;;14.33;37.78
7834;BME280;3962;42.696;23.354;2023-03-14T11:03:59;94835.97;;;14.36;37.39
7834;BME280;3962;42.696;23.354;2023-03-14T11:06:36;94836.66;;;14.52;38.24
7834;BME280;3962;42.696;23.354;2023-03-14T11:09:12;94824.75;;;14.69;37.43
7834;BME280;3962;42.696;23.354;2023-03-14T11:11:45;94827.09;;;15.01;37.36
7834;BME280;3962;42.696;23.354;2023-03-14T11:14:20;94809.09;;;15.38;36.51
7834;BME280;3962;42.696;23.354;2023-03-14T11:16:53;94805.25;;;15.62;35.82
7834;BME280;3962;42.696;23.354;2023-03-14T11:19:47;94802.00;;;15.66;35.96
7834;BME280;3962;42.696;23.354;2023-03-14T11:22:27;94788.47;;;15.39;36.19
7834;BME280;3962;42.696;23.354;2023-03-14T11:25:07;94767.41;;;15.36;36.42
7834;BME280;3962;42.696;23.354;2023-03-14T11:27:42;94769.00;;;15.51;36.19
7834;BME280;3962;42.696;23.354;2023-03-14T11:30:25;94755.00;;;15.70;35.73
7834;BME280;3962;42.696;23.354;2023-03-14T11:33:03;94752.38;;;15.77;35.46
7834;BME280;3962;42.696;23.354;2023-03-14T11:35:37;94746.69;;;16.07;35.00
7834;BME280;3962;42.696;23.354;2023-03-14T11:38:23;94748.03;;;15.97;35.23
7834;BME280;3962;42.696;23.354;2023-03-14T11:40:54;94733.75;;;15.90;34.83
7834;BME280;3962;42.696;23.354;2023-03-14T11:43:27;94724.16;;;15.60;35.71
7834;BME280;3962;42.696;23.354;2023-03-14T11:45:58;94724.81;;;15.83;35.18
7834;BME280;3962;42.696;23.354;2023-03-14T11:48:34;94711.34;;;16.04;35.04
7834;BME280;3962;42.696;23.354;2023-03-14T11:51:11;94717.91;;;16.43;34.07
7834;BME280;3962;42.696;23.354;2023-03-14T11:53:47;94706.09;;;16.17;34.61
7834;BME280;3962;42.696;23.354;2023-03-14T11:56:22;94705.66;;;16.13;34.42
7834;BME280;3962;42.696;23.354;2023-03-14T11:58:57;94703.44;;;16.44;34.05
7834;BME280;3962;42.696;23.354;2023-03-14T12:01:32;94695.78;;;16.41;34.06
7834;BME280;3962;42.696;23.354;2023-03-14T12:04:07;94691.03;;;16.43;34.05
7834;BME280;3962;42.696;23.354;2023-03-14T12:06:41;94684.19;;;16.41;33.54
7834;BME280;3962;42.696;23.354;2023-03-14T12:09:13;94674.97;;;16.50;33.56
7834;BME280;3962;42.696;23.354;2023-03-14T12:11:44;94666.81;;;16.64;33.00
7834;BME280;3962;42.696;23.354;2023-03-14T12:14:20;94670.47;;;16.57;32.91
7834;BME280;3962;42.696;23.354;2023-03-14T12:16:49;94664.13;;;16.64;32.88
7834;BME280;3962;42.696;23.354;2023-03-14T12:19:36;94649.81;;;16.57;32.79
7834;BME280;3962;42.696;23.354;2023-03-14T12:22:21;94652.03;;;16.88;32.61
7834;BME280;3962;42.696;23.354;2023-03-14T12:24:53;94642.81;;;17.23;32.16
7834;BME280;3962;42.696;23.354;2023-03-14T12:27:45;94642.16;;;17.01;32.40
7834;BME280;3962;42.696;23.354;2023-03-14T12:30:24;94629.56;;;17.08;31.94
7834;BME280;3962;42.696;23.354;2023-03-14T12:35:58;94622.16;;;17.23;31.94
7834;BME280;3962;42.696;23.354;2023-03-14T12:38:31;94623.00;;;17.24;32.48
7834;BME280;3962;42.696;23.354;2023-03-14T12:41:12;94619.28;;;17.25;31.95
7834;BME280;3962;42.696;23.354;2023-03-14T12:43:39;94617.75;;;16.96;32.52
7834;BME280;3962;42.696;23.354;2023-03-14T12:48:54;94616.59;;;16.65;32.94
7834;BME280;3962;42.696;23.354;2023-03-14T12:51:29;94607.66;;;16.58;32.80
7834;BME280;3962;42.696;23.354;2023-03-14T12:54:33;94601.06;;;16.60;32.82
7834;BME280;3962;42.696;23.354;2023-03-14T12:57:11;94590.75;;;16.64;32.33
7834;BME280;3962;42.696;23.354;2023-03-14T12:59:46;94583.00;;;16.88;32.26
7834;BME280;3962;42.696;23.354;2023-03-14T13:02:23;94582.22;;;17.14;32.19
7834;BME280;3962;42.696;23.354;2023-03-14T13:04:52;94569.84;;;17.26;31.76
7834;BME280;3962;42.696;23.354;2023-03-14T13:07:35;94566.81;;;17.55;31.48
7834;BME280;3962;42.696;23.354;2023-03-14T13:10:16;94568.06;;;17.72;31.43
7834;BME280;3962;42.696;23.354;2023-03-14T13:12:48;94562.25;;;17.88;31.18
7834;BME280;3962;42.696;23.354;2023-03-14T13:15:23;94554.78;;;17.90;30.75
7834;BME280;3962;42.696;23.354;2023-03-14T13:17:52;94552.53;;;17.87;30.60
7834;BME280;3962;42.696;23.354;2023-03-14T13:20:24;94556.66;;;17.96;30.42
7834;BME280;3962;42.696;23.354;2023-03-14T13:22:53;94544.63;;;17.92;30.79
7834;BME280;3962;42.696;23.354;2023-03-14T13:25:20;94542.34;;;18.08;30.35
7834;BME280;3962;42.696;23.354;2023-03-14T13:27:52;94530.13;;;17.93;30.22
7834;BME280;3962;42.696;23.354;2023-03-14T13:30:23;94528.28;;;17.80;30.12
7834;BME280;3962;42.696;23.354;2023-03-14T13:32:52;94521.50;;;17.45;30.37
7834;BME280;3962;42.696;23.354;2023-03-14T13:35:22;94514.63;;;17.17;30.83
7834;BME280;3962;42.696;23.354;2023-03-14T13:37:58;94505.53;;;17.18;31.18